Time;durP1;ratioP1;P1;durP2;ratioP2;P2;SDS_P1;SDS_P2;PMS_P1;PMS_P2;Temp;Humidity;BMP_temperature;BMP_pressure;BME280_temperature;BME280_humidity;BME280_pressure;Samples;Min_cycle;Max_cycle;Signal;HPM_P1;HPM_P2
2023/05/07 00:04:39;;;;;;;2.43;2.23;;;17.80;34.60;;;;;;10472687;28;20263;-69
2023/05/07 00:09:42;;;;;;;2.40;2.00;;;17.80;34.90;;;;;;10471359;28;20256;-68
2023/05/07 00:14:45;;;;;;;2.17;2.00;;;17.70;34.50;;;;;;10474193;28;20239;-69
2023/05/07 00:19:50;;;;;;;3.27;2.63;;;17.70;34.50;;;;;;10471315;28;20236;-67
2023/05/07 00:24:53;;;;;;;2.77;2.57;;;17.60;34.40;;;;;;10471111;28;20247;-68
2023/05/07 00:29:56;;;;;;;3.23;2.93;;;17.60;34.40;;;;;;10474960;28;20272;-67
2023/05/07 00:35:01;;;;;;;2.53;2.33;;;17.50;34.30;;;;;;10471408;28;20232;-67
2023/05/07 00:40:07;;;;;;;2.10;1.90;;;17.50;34.30;;;;;;10469541;28;20228;-67
2023/05/07 00:45:10;;;;;;;2.50;2.30;;;17.40;34.20;;;;;;10472980;28;20242;-67
2023/05/07 00:50:15;;;;;;;2.83;2.53;;;17.40;34.20;;;;;;10470497;28;20232;-77
2023/05/07 00:55:18;;;;;;;2.50;2.30;;;17.30;34.50;;;;;;10468713;28;20239;-67
2023/05/07 01:00:22;;;;;;;2.77;2.57;;;17.30;34.10;;;;;;10471423;28;20236;-67
2023/05/07 01:05:28;;;;;;;2.40;2.00;;;17.20;34.00;;;;;;10467756;28;20266;-67
2023/05/07 01:10:31;;;;;;;2.37;2.13;;;17.10;34.90;;;;;;10471237;28;20684;-66
2023/05/07 01:15:34;;;;;;;4.17;2.60;;;17.00;34.10;;;;;;10467621;28;20224;-67
2023/05/07 01:20:39;;;;;;;2.23;2.03;;;16.80;34.30;;;;;;10467101;28;20238;-67
2023/05/07 01:25:44;;;;;;;2.77;2.47;;;16.70;35.10;;;;;;10468342;28;20573;-67
2023/05/07 01:30:50;;;;;;;2.47;2.23;;;16.60;35.30;;;;;;10469379;28;20228;-67
2023/05/07 01:35:54;;;;;;;1.93;1.83;;;16.60;35.40;;;;;;10470464;28;20744;-68
2023/05/07 01:40:59;;;;;;;2.20;2.00;;;16.50;35.40;;;;;;10465333;28;20239;-67
2023/05/07 01:46:05;;;;;;;2.67;1.73;;;16.50;35.60;;;;;;10470818;28;20254;-67
2023/05/07 01:51:09;;;;;;;2.30;2.03;;;16.50;35.50;;;;;;10467434;28;20242;-67
2023/05/07 01:56:14;;;;;;;1.90;1.80;;;16.50;35.50;;;;;;10468977;28;20247;-67
2023/05/07 02:01:17;;;;;;;2.30;2.10;;;16.50;35.60;;;;;;10466698;28;20826;-67
2023/05/07 02:06:20;;;;;;;2.20;2.00;;;16.50;35.40;;;;;;10467462;28;20234;-67
2023/05/07 02:11:25;;;;;;;2.50;2.30;;;16.40;35.40;;;;;;10468338;28;20228;-67
2023/05/07 02:16:28;;;;;;;2.10;1.93;;;16.40;35.50;;;;;;10463945;28;20228;-67
2023/05/07 02:21:31;;;;;;;2.70;2.10;;;16.40;35.40;;;;;;10468867;28;20239;-67
2023/05/07 02:26:36;;;;;;;2.13;2.03;;;16.30;35.60;;;;;;10467323;28;20228;-67
2023/05/07 02:31:39;;;;;;;2.20;2.10;;;16.30;35.90;;;;;;10467537;28;20232;-68
2023/05/07 02:36:42;;;;;;;2.43;2.10;;;16.20;35.50;;;;;;10466740;28;20307;-67
2023/05/07 02:41:47;;;;;;;3.00;1.80;;;16.20;35.50;;;;;;10467831;28;20704;-67
2023/05/07 02:46:50;;;;;;;3.93;2.00;;;16.20;36.50;;;;;;10465921;28;20239;-67
2023/05/07 02:51:53;;;;;;;1.87;1.77;;;16.10;35.60;;;;;;10468685;28;20231;-67
2023/05/07 02:56:58;;;;;;;2.30;2.20;;;16.10;35.60;;;;;;10465066;28;20720;-67
2023/05/07 03:02:01;;;;;;;3.03;1.90;;;16.10;35.90;;;;;;10468995;28;20234;-68
2023/05/07 03:07:04;;;;;;;2.00;1.90;;;16.00;35.60;;;;;;10462335;28;20315;-68
2023/05/07 03:12:09;;;;;;;2.07;1.97;;;16.00;35.60;;;;;;10464334;28;20239;-67
2023/05/07 03:17:12;;;;;;;2.20;1.90;;;16.00;36.00;;;;;;10462562;28;20315;-68
2023/05/07 03:22:15;;;;;;;2.37;2.00;;;16.00;35.80;;;;;;10464475;28;20260;-67
2023/05/07 03:27:20;;;;;;;2.00;1.90;;;16.00;35.90;;;;;;10459168;28;20229;-72
2023/05/07 03:32:23;;;;;;;2.13;2.03;;;15.90;36.00;;;;;;10464689;28;20236;-72
2023/05/07 03:37:27;;;;;;;2.23;1.80;;;15.90;36.00;;;;;;10465955;28;20455;-71
2023/05/07 03:42:31;;;;;;;1.70;1.60;;;15.90;35.90;;;;;;10471604;28;20224;-78
2023/05/07 03:47:34;;;;;;;1.80;1.70;;;15.90;36.00;;;;;;10474604;28;20232;-76
2023/05/07 03:52:37;;;;;;;1.43;1.33;;;15.90;35.80;;;;;;10475445;28;20231;-78
2023/05/07 03:57:42;;;;;;;2.00;1.90;;;15.80;35.70;;;;;;10473763;28;20712;-78
2023/05/07 04:02:45;;;;;;;1.83;1.73;;;15.80;36.10;;;;;;10473758;28;20258;-78
2023/05/07 04:07:48;;;;;;;1.87;1.57;;;15.80;35.80;;;;;;10473684;28;20322;-77
2023/05/07 04:12:53;;;;;;;2.00;1.90;;;15.70;35.90;;;;;;10470870;28;20239;-78
2023/05/07 04:17:57;;;;;;;1.90;1.80;;;15.70;36.20;;;;;;10473488;28;20276;-77
2023/05/07 04:23:00;;;;;;;1.70;1.50;;;15.60;35.80;;;;;;10475107;28;20228;-78
2023/05/07 04:28:05;;;;;;;1.60;1.50;;;15.30;35.60;;;;;;10470680;28;20243;-77
2023/05/07 04:33:09;;;;;;;1.43;1.33;;;15.40;36.40;;;;;;10476751;28;20326;-77
2023/05/07 04:38:12;;;;;;;1.60;1.50;;;15.30;36.30;;;;;;10471026;28;20232;-78
2023/05/07 04:43:16;;;;;;;1.80;1.70;;;15.30;36.50;;;;;;10477033;28;20867;-78
2023/05/07 04:48:20;;;;;;;1.70;1.60;;;15.30;36.80;;;;;;10471537;28;20221;-77
2023/05/07 04:53:23;;;;;;;1.47;1.43;;;15.30;36.60;;;;;;10469672;28;20241;-78
2023/05/07 04:58:31;;;;;;;1.80;1.70;;;15.20;36.70;;;;;;10468621;28;20231;-77
2023/05/07 05:03:35;;;;;;;1.70;1.60;;;15.20;37.40;;;;;;10472825;28;20295;-77
2023/05/07 05:08:38;;;;;;;2.00;1.90;;;15.30;37.10;;;;;;10472061;28;20305;-77
2023/05/07 05:13:42;;;;;;;2.40;2.20;;;15.30;37.40;;;;;;10473733;28;20263;-77
2023/05/07 05:18:46;;;;;;;2.30;2.10;;;15.30;37.90;;;;;;10470813;28;20735;-77
2023/05/07 05:23:49;;;;;;;4.13;2.50;;;15.40;37.60;;;;;;10471220;28;20227;-77
2023/05/07 05:28:53;;;;;;;2.40;2.30;;;15.40;37.80;;;;;;10469211;28;20609;-77
2023/05/07 05:33:57;;;;;;;2.47;2.23;;;15.40;38.40;;;;;;10471294;28;20232;-77
2023/05/07 05:39:00;;;;;;;2.97;2.77;;;15.40;38.00;;;;;;10471173;28;20236;-77
2023/05/07 05:44:04;;;;;;;2.60;2.40;;;15.40;38.30;;;;;;10468149;28;20251;-77
2023/05/07 05:49:08;;;;;;;2.23;2.13;;;15.50;38.80;;;;;;10466628;28;20932;-76
2023/05/07 05:54:11;;;;;;;4.07;2.40;;;15.50;38.50;;;;;;10473119;28;20251;-76
2023/05/07 05:59:16;;;;;;;2.80;2.60;;;15.60;38.70;;;;;;10471116;28;20751;-77
2023/05/07 06:04:19;;;;;;;2.93;2.73;;;15.60;39.20;;;;;;10471667;28;20236;-77
2023/05/07 06:09:22;;;;;;;3.43;3.03;;;15.70;38.90;;;;;;10470138;28;20232;-76
2023/05/07 06:14:27;;;;;;;3.43;2.97;;;15.80;39.30;;;;;;10468295;28;20236;-77
2023/05/07 06:19:30;;;;;;;3.83;3.30;;;15.90;40.20;;;;;;10469053;28;20236;-77
2023/05/07 06:24:33;;;;;;;3.60;3.33;;;16.00;39.70;;;;;;10468611;28;20231;-77
2023/05/07 06:29:38;;;;;;;3.47;3.27;;;16.10;40.00;;;;;;10466717;28;20648;-78
2023/05/07 06:34:41;;;;;;;3.17;2.97;;;16.30;40.70;;;;;;10466297;28;20286;-77
2023/05/07 06:39:44;;;;;;;3.43;3.23;;;16.40;40.30;;;;;;10464932;28;20238;-77
2023/05/07 06:44:49;;;;;;;3.97;3.57;;;16.60;40.40;;;;;;10463594;28;20682;-77
2023/05/07 06:49:52;;;;;;;2.67;2.47;;;16.70;41.10;;;;;;10463133;28;20228;-77
2023/05/07 06:54:55;;;;;;;3.30;3.10;;;16.90;40.30;;;;;;10468480;28;20708;-77
2023/05/07 07:00:00;;;;;;;3.13;2.93;;;17.10;40.40;;;;;;10466083;28;20232;-77
2023/05/07 07:05:03;;;;;;;3.53;3.30;;;17.20;40.60;;;;;;10465837;28;20634;-76
2023/05/07 07:10:08;;;;;;;3.30;3.10;;;17.40;40.70;;;;;;10468034;28;20233;-76
2023/05/07 07:15:13;;;;;;;3.80;3.50;;;17.50;40.80;;;;;;10467016;28;20224;-76
2023/05/07 07:20:17;;;;;;;3.30;3.10;;;17.60;41.30;;;;;;10470066;28;20233;-77
2023/05/07 07:25:20;;;;;;;3.30;3.10;;;17.80;40.80;;;;;;10472286;28;20313;-77
2023/05/07 07:30:25;;;;;;;4.77;3.40;;;18.00;41.20;;;;;;10470882;28;20234;-69
2023/05/07 07:35:29;;;;;;;3.77;3.40;;;18.10;41.50;;;;;;10468151;28;20224;-71
2023/05/07 07:40:32;;;;;;;3.80;3.50;;;18.30;41.20;;;;;;10470589;28;20233;-69
2023/05/07 07:45:37;;;;;;;3.40;3.20;;;18.50;41.40;;;;;;10465906;28;20236;-69
2023/05/07 07:50:43;;;;;;;4.37;2.80;;;18.80;41.60;;;;;;10467073;28;20319;-69
2023/05/07 07:55:48;;;;;;;3.63;3.33;;;19.00;41.00;;;;;;10462057;28;20228;-69
2023/05/07 08:00:54;;;;;;;3.60;3.30;;;19.20;41.20;;;;;;10458247;28;20228;-69
2023/05/07 08:05:57;;;;;;;3.43;3.20;;;19.40;41.50;;;;;;10462665;28;20228;-69
2023/05/07 08:11:01;;;;;;;3.27;3.03;;;19.70;41.40;;;;;;10464612;28;20236;-70
2023/05/07 08:16:06;;;;;;;3.60;3.33;;;19.90;41.30;;;;;;10462984;28;20653;-72
2023/05/07 08:21:09;;;;;;;2.97;2.77;;;20.20;41.20;;;;;;10466710;28;20228;-71
2023/05/07 08:26:13;;;;;;;3.23;3.03;;;20.40;40.90;;;;;;10468919;28;20570;-69
2023/05/07 08:31:17;;;;;;;3.00;2.80;;;20.70;40.60;;;;;;10471480;28;20720;-68
2023/05/07 08:36:21;;;;;;;2.93;2.73;;;21.00;40.60;;;;;;10467973;28;20324;-75
2023/05/07 08:41:24;;;;;;;3.40;3.10;;;21.20;40.70;;;;;;10471936;28;20232;-71
2023/05/07 08:46:33;;;;;;;3.50;3.20;;;21.50;40.30;;;;;;10467344;28;20272;-72
2023/05/07 08:51:37;;;;;;;2.80;2.60;;;21.70;40.00;;;;;;10469658;28;20229;-71
2023/05/07 08:56:40;;;;;;;3.33;2.73;;;21.80;39.80;;;;;;10469038;28;20234;-68
2023/05/07 09:01:45;;;;;;;2.60;2.50;;;22.00;39.70;;;;;;10469554;28;20255;-67
2023/05/07 09:06:50;;;;;;;2.93;2.73;;;22.30;39.90;;;;;;10467857;28;20315;-69
2023/05/07 09:11:59;;;;;;;3.50;3.20;;;22.40;39.30;;;;;;10468900;28;20239;-69
2023/05/07 09:17:04;;;;;;;3.60;2.73;;;22.60;38.80;;;;;;10463672;28;20632;-70
2023/05/07 09:22:07;;;;;;;2.90;2.70;;;22.70;38.20;;;;;;10465900;28;20235;-71
2023/05/07 09:27:13;;;;;;;2.40;2.23;;;22.80;38.50;;;;;;10468750;28;21295;-70
2023/05/07 09:32:17;;;;;;;3.23;2.97;;;23.00;38.00;;;;;;10469718;28;20818;-70
2023/05/07 09:37:20;;;;;;;2.70;2.50;;;23.10;38.00;;;;;;10465407;28;20225;-70
2023/05/07 09:42:25;;;;;;;2.20;2.10;;;23.30;37.70;;;;;;10467227;28;20235;-73
2023/05/07 09:47:33;;;;;;;2.63;2.43;;;23.40;37.10;;;;;;10465372;28;20918;-69
2023/05/07 09:52:37;;;;;;;2.33;2.00;;;23.60;36.00;;;;;;10462067;28;20795;-69
2023/05/07 09:57:42;;;;;;;3.57;3.33;;;23.70;36.40;;;;;;10466405;28;21050;-71
2023/05/07 10:02:49;;;;;;;3.27;3.07;;;23.90;36.00;;;;;;10462981;28;20232;-69
2023/05/07 10:07:53;;;;;;;2.87;2.70;;;24.00;34.90;;;;;;10464425;28;20248;-72
2023/05/07 10:12:57;;;;;;;2.40;2.20;;;24.20;35.70;;;;;;10463780;28;20224;-73
2023/05/07 10:18:01;;;;;;;2.27;2.17;;;24.40;35.40;;;;;;10463319;28;20228;-72
2023/05/07 10:23:06;;;;;;;1.97;1.87;;;24.50;34.30;;;;;;10462584;28;20225;-73
2023/05/07 10:28:12;;;;;;;2.00;1.90;;;24.70;34.40;;;;;;10464332;28;20278;-73
2023/05/07 10:33:21;;;;;;;1.60;1.50;;;24.80;33.60;;;;;;10463982;28;20220;-74
2023/05/07 10:38:25;;;;;;;2.00;1.80;;;24.90;33.20;;;;;;10461471;28;20234;-74
2023/05/07 10:43:40;;;;;;;2.10;2.00;;;25.00;33.80;;;;;;10467641;28;20224;-74
2023/05/07 10:49:11;;;;;;;2.00;1.90;;;25.20;32.20;;;;;;10467597;28;20228;-74
2023/05/07 10:54:27;;;;;;;1.67;1.57;;;25.20;32.20;;;;;;10454329;28;20223;-74
2023/05/07 10:59:40;;;;;;;1.57;1.57;;;25.30;31.10;;;;;;10475441;28;20231;-70
2023/05/07 11:04:45;;;;;;;2.03;1.90;;;25.30;31.50;;;;;;10471640;28;20224;-72
2023/05/07 11:10:01;;;;;;;1.77;1.67;;;25.40;31.80;;;;;;10473458;28;20228;-69
2023/05/07 11:15:05;;;;;;;2.57;1.80;;;25.50;31.30;;;;;;10474308;28;20231;-69
2023/05/07 11:20:11;;;;;;;1.70;1.57;;;25.60;31.90;;;;;;10468913;28;20948;-69
2023/05/07 11:25:19;;;;;;;1.93;1.83;;;25.80;31.00;;;;;;10472341;28;20250;-72
2023/05/07 11:30:23;;;;;;;2.00;1.90;;;25.90;30.10;;;;;;10470954;28;20701;-74
2023/05/07 11:35:28;;;;;;;2.10;2.00;;;26.00;30.70;;;;;;10471009;28;20238;-70
2023/05/07 11:40:31;;;;;;;2.47;2.00;;;26.00;30.00;;;;;;10470505;28;20232;-73
2023/05/07 11:45:36;;;;;;;2.50;1.90;;;26.20;30.40;;;;;;10468659;28;20715;-72
2023/05/07 11:50:51;;;;;;;2.03;1.93;;;26.30;30.40;;;;;;10468776;28;20238;-69
2023/05/07 11:55:56;;;;;;;3.30;2.10;;;26.40;29.40;;;;;;10468011;28;20220;-72
2023/05/07 12:00:59;;;;;;;3.90;1.97;;;26.40;29.50;;;;;;10471539;28;20229;-73
2023/05/07 12:06:06;;;;;;;1.97;1.87;;;26.40;29.40;;;;;;10467997;28;20720;-69
2023/05/07 12:11:11;;;;;;;2.30;1.60;;;26.40;29.40;;;;;;10470915;28;20227;-74
2023/05/07 12:16:15;;;;;;;1.83;1.70;;;26.40;29.40;;;;;;10469143;28;20286;-74
2023/05/07 12:21:19;;;;;;;1.70;1.60;;;26.50;29.50;;;;;;10469786;28;20309;-72
2023/05/07 12:26:23;;;;;;;2.60;1.70;;;26.50;28.90;;;;;;10468884;28;20244;-74
2023/05/07 12:31:27;;;;;;;1.90;1.80;;;26.50;29.50;;;;;;10471300;28;20251;-74
2023/05/07 12:36:39;;;;;;;1.80;1.70;;;26.50;28.90;;;;;;10470627;28;20239;-68
2023/05/07 12:41:55;;;;;;;1.67;1.57;;;26.50;27.90;;;;;;10468856;28;20274;-69
2023/05/07 12:46:58;;;;;;;1.70;1.60;;;26.50;28.30;;;;;;10470289;28;20236;-69
2023/05/07 12:52:03;;;;;;;1.60;1.50;;;26.60;28.60;;;;;;10469876;28;20224;-70
2023/05/07 12:57:08;;;;;;;1.70;1.60;;;26.60;28.20;;;;;;10469324;28;20228;-69
2023/05/07 13:02:12;;;;;;;1.87;1.60;;;26.60;28.70;;;;;;10467323;28;20228;-69
2023/05/07 13:07:16;;;;;;;1.30;1.30;;;26.60;28.40;;;;;;10465681;28;20232;-69
2023/05/07 13:12:19;;;;;;;1.30;1.30;;;26.60;28.30;;;;;;10470149;28;20239;-77
2023/05/07 13:17:22;;;;;;;1.37;1.30;;;26.50;28.60;;;;;;10463770;28;20232;-73
2023/05/07 13:22:27;;;;;;;2.07;1.40;;;26.50;28.00;;;;;;10467360;28;20316;-73
2023/05/07 13:27:30;;;;;;;1.77;1.67;;;26.50;27.60;;;;;;10466078;28;20638;-73
2023/05/07 13:32:34;;;;;;;1.37;1.27;;;26.50;28.00;;;;;;10466929;28;20224;-73
2023/05/07 13:37:38;;;;;;;1.60;1.50;;;26.50;27.80;;;;;;10467898;28;20309;-73
2023/05/07 13:42:41;;;;;;;1.50;1.40;;;26.50;27.10;;;;;;10466936;28;20225;-73
2023/05/07 13:47:45;;;;;;;1.27;1.27;;;26.50;27.30;;;;;;10468318;28;20234;-73
2023/05/07 13:52:51;;;;;;;1.63;1.50;;;26.50;27.00;;;;;;10466421;28;20365;-73
2023/05/07 13:57:57;;;;;;;1.47;1.37;;;26.50;27.20;;;;;;10466329;28;20231;-73
2023/05/07 14:03:00;;;;;;;2.23;1.57;;;26.50;27.20;;;;;;10468230;28;20224;-73
2023/05/07 14:08:05;;;;;;;1.87;1.70;;;26.50;27.60;;;;;;10463746;28;20240;-73
2023/05/07 14:13:08;;;;;;;1.67;1.57;;;26.50;27.30;;;;;;10464326;28;20228;-73
2023/05/07 14:18:11;;;;;;;1.93;1.83;;;26.40;27.60;;;;;;10459854;28;20335;-74
2023/05/07 14:23:17;;;;;;;2.57;1.77;;;26.40;27.80;;;;;;10467860;28;20279;-68
2023/05/07 14:28:20;;;;;;;2.00;1.60;;;26.40;27.30;;;;;;10462257;28;20465;-69
2023/05/07 14:33:23;;;;;;;1.73;1.63;;;26.40;27.70;;;;;;10463460;28;20228;-68
2023/05/07 14:38:28;;;;;;;1.70;1.60;;;26.40;27.50;;;;;;10463374;28;20232;-72
2023/05/07 14:43:31;;;;;;;1.70;1.60;;;26.40;27.60;;;;;;10464764;28;20591;-72
2023/05/07 14:48:34;;;;;;;1.70;1.60;;;26.40;27.60;;;;;;10459128;28;20232;-72
2023/05/07 14:53:39;;;;;;;1.70;1.60;;;26.50;27.70;;;;;;10446641;28;20232;-68
2023/05/07 14:58:42;;;;;;;1.70;1.60;;;26.40;27.50;;;;;;10443185;28;20774;-72
2023/05/07 15:03:45;;;;;;;1.60;1.50;;;26.50;27.30;;;;;;10445460;28;20228;-73
2023/05/07 15:08:50;;;;;;;1.40;1.30;;;26.50;27.30;;;;;;10450370;28;20228;-73
2023/05/07 15:13:53;;;;;;;1.83;1.40;;;26.40;26.90;;;;;;10466566;28;20240;-69
2023/05/07 15:18:56;;;;;;;1.70;1.60;;;26.40;27.20;;;;;;10466080;28;20243;-68
2023/05/07 15:24:01;;;;;;;1.57;1.47;;;26.40;27.30;;;;;;10468892;28;20228;-69
2023/05/07 15:29:09;;;;;;;1.73;1.60;;;26.40;27.00;;;;;;10465471;28;20228;-71
2023/05/07 15:34:14;;;;;;;1.80;1.70;;;26.30;27.10;;;;;;10468794;28;20228;-72
2023/05/07 15:39:19;;;;;;;1.53;1.43;;;26.30;27.10;;;;;;10477257;28;20313;-72
2023/05/07 15:44:27;;;;;;;1.90;1.80;;;26.30;27.10;;;;;;10477602;28;20227;-72
2023/05/07 15:49:30;;;;;;;1.60;1.50;;;26.20;27.20;;;;;;10476435;28;20286;-76
2023/05/07 15:54:34;;;;;;;1.40;1.40;;;26.20;27.10;;;;;;10478114;28;20731;-75
2023/05/07 15:59:38;;;;;;;1.70;1.60;;;26.20;26.90;;;;;;10471475;28;20232;-75
2023/05/07 16:04:41;;;;;;;1.97;1.87;;;26.10;26.80;;;;;;10476014;28;20240;-74
2023/05/07 16:09:46;;;;;;;2.00;1.90;;;26.10;27.20;;;;;;10474984;28;20224;-72
2023/05/07 16:14:50;;;;;;;1.87;1.70;;;26.00;27.20;;;;;;10475404;28;20688;-74
2023/05/07 16:19:53;;;;;;;1.87;1.77;;;26.00;27.40;;;;;;10474417;28;20236;-73
2023/05/07 16:24:58;;;;;;;1.80;1.70;;;26.00;27.30;;;;;;10463018;28;20220;-70
2023/05/07 16:30:02;;;;;;;2.10;2.00;;;25.90;27.20;;;;;;10463920;28;20228;-69
2023/05/07 16:35:05;;;;;;;2.30;2.10;;;25.90;27.30;;;;;;10470401;28;20235;-74
2023/05/07 16:40:11;;;;;;;2.40;2.20;;;25.80;27.50;;;;;;10469326;28;21110;-69
2023/05/07 16:45:15;;;;;;;2.43;2.27;;;25.80;27.30;;;;;;10467799;28;20764;-75
2023/05/07 16:50:18;;;;;;;2.17;2.07;;;25.70;27.40;;;;;;10464404;28;20221;-69
2023/05/07 16:55:23;;;;;;;2.60;2.50;;;25.70;27.40;;;;;;10470734;28;20232;-70
2023/05/07 17:00:26;;;;;;;2.37;2.27;;;25.60;27.40;;;;;;10470148;28;20236;-75
2023/05/07 17:05:37;;;;;;;2.30;2.20;;;25.50;27.60;;;;;;10467979;28;20228;-75
2023/05/07 17:10:44;;;;;;;2.40;2.30;;;25.50;27.50;;;;;;10469264;28;20620;-73
2023/05/07 17:15:47;;;;;;;2.67;2.47;;;25.40;27.30;;;;;;10468752;28;20235;-73
2023/05/07 17:20:51;;;;;;;2.87;2.67;;;25.40;27.40;;;;;;10469453;28;20303;-75
2023/05/07 17:25:56;;;;;;;2.60;2.33;;;25.20;27.40;;;;;;10467052;28;20224;-69
2023/05/07 17:30:59;;;;;;;2.53;2.40;;;25.20;27.50;;;;;;10466302;28;20643;-73
2023/05/07 17:36:02;;;;;;;2.83;2.63;;;25.10;27.70;;;;;;10466735;28;20258;-72
2023/05/07 17:41:07;;;;;;;3.20;2.90;;;25.00;27.60;;;;;;10464534;28;20216;-74
2023/05/07 17:46:10;;;;;;;3.30;3.10;;;24.90;27.70;;;;;;10467349;28;20236;-73
2023/05/07 17:51:13;;;;;;;3.23;3.03;;;24.80;27.80;;;;;;10466525;28;20236;-69
2023/05/07 17:56:19;;;;;;;3.27;3.00;;;24.70;27.70;;;;;;10465934;28;20647;-69
2023/05/07 18:01:22;;;;;;;3.53;3.33;;;24.60;27.60;;;;;;10469645;28;20286;-68
2023/05/07 18:06:25;;;;;;;3.57;3.27;;;24.50;27.80;;;;;;10465666;28;20310;-69
2023/05/07 18:11:31;;;;;;;3.23;3.00;;;24.50;27.90;;;;;;10467825;28;20601;-69
2023/05/07 18:16:34;;;;;;;3.47;3.17;;;24.40;27.60;;;;;;10466419;28;20231;-69
2023/05/07 18:21:38;;;;;;;3.70;3.50;;;24.30;27.70;;;;;;10466903;28;20228;-69
2023/05/07 18:26:43;;;;;;;3.87;3.50;;;24.20;27.80;;;;;;10462954;28;20587;-69
2023/05/07 18:31:46;;;;;;;3.77;3.47;;;24.10;27.90;;;;;;10465046;28;20239;-69
2023/05/07 18:36:49;;;;;;;3.97;3.67;;;24.10;28.10;;;;;;10464266;28;20313;-76
2023/05/07 18:41:54;;;;;;;3.77;3.47;;;24.00;28.00;;;;;;10467711;28;20227;-76
2023/05/07 18:46:57;;;;;;;3.90;3.60;;;23.90;27.90;;;;;;10466049;28;20799;-69
2023/05/07 18:52:00;;;;;;;4.10;3.70;;;23.80;27.90;;;;;;10467492;28;20238;-74
2023/05/07 18:57:05;;;;;;;3.80;3.50;;;23.70;27.80;;;;;;10465506;28;20278;-72
2023/05/07 19:02:08;;;;;;;3.43;3.20;;;23.60;27.80;;;;;;10467105;28;20228;-72
2023/05/07 19:07:11;;;;;;;3.77;3.53;;;23.50;27.70;;;;;;10464304;28;20586;-72
2023/05/07 19:12:16;;;;;;;4.30;4.00;;;23.40;27.90;;;;;;10473584;28;20228;-72
2023/05/07 19:17:21;;;;;;;4.10;3.80;;;23.30;28.10;;;;;;10477790;28;20228;-75
2023/05/07 19:22:25;;;;;;;4.43;4.13;;;23.20;28.00;;;;;;10475403;28;20228;-69
2023/05/07 19:27:29;;;;;;;4.50;4.20;;;23.10;28.00;;;;;;10470707;28;21237;-72
2023/05/07 19:32:33;;;;;;;4.70;4.40;;;23.00;28.40;;;;;;10469331;28;20672;-74
2023/05/07 19:37:36;;;;;;;4.40;4.10;;;22.80;28.30;;;;;;10466247;28;20247;-75
2023/05/07 19:42:41;;;;;;;5.00;4.60;;;22.70;28.40;;;;;;10468984;28;20228;-69
2023/05/07 19:47:44;;;;;;;4.77;4.30;;;22.60;28.60;;;;;;10467132;28;20737;-69
2023/05/07 19:52:47;;;;;;;6.23;4.60;;;22.50;28.60;;;;;;10470351;28;20231;-69
2023/05/07 19:57:52;;;;;;;5.10;4.70;;;22.40;28.60;;;;;;10467876;28;20225;-70
2023/05/07 20:02:55;;;;;;;4.83;4.33;;;22.30;28.70;;;;;;10465996;28;20228;-73
2023/05/07 20:07:59;;;;;;;5.43;5.03;;;22.20;28.70;;;;;;10466489;28;20239;-70
2023/05/07 20:13:04;;;;;;;5.37;4.97;;;22.10;29.00;;;;;;10465574;28;20224;-70
2023/05/07 20:18:07;;;;;;;5.13;4.73;;;22.10;29.20;;;;;;10466095;28;20286;-70
2023/05/07 20:23:10;;;;;;;4.83;4.50;;;22.00;29.10;;;;;;10466434;28;21116;-69
2023/05/07 20:28:15;;;;;;;5.20;4.80;;;22.00;29.20;;;;;;10467592;28;20297;-70
2023/05/07 20:33:18;;;;;;;5.30;4.80;;;21.90;29.30;;;;;;10465747;28;20766;-72
2023/05/07 20:38:22;;;;;;;5.63;5.13;;;21.90;29.30;;;;;;10468660;28;20319;-71
2023/05/07 20:43:26;;;;;;;5.30;4.90;;;21.80;29.30;;;;;;10467640;28;20227;-70
2023/05/07 20:48:30;;;;;;;5.63;5.20;;;21.80;29.50;;;;;;10466367;28;20228;-70
2023/05/07 20:53:36;;;;;;;5.00;4.60;;;21.70;29.40;;;;;;10466350;28;20235;-70
2023/05/07 20:58:40;;;;;;;5.27;4.87;;;21.70;29.30;;;;;;10464090;28;20239;-70
2023/05/07 21:03:44;;;;;;;5.33;4.93;;;21.60;29.40;;;;;;10465382;28;20370;-70
2023/05/07 21:08:47;;;;;;;5.27;4.80;;;21.50;29.40;;;;;;10465693;28;20229;-69
2023/05/07 21:13:51;;;;;;;5.87;5.40;;;21.50;29.50;;;;;;10466330;28;20228;-70
2023/05/07 21:18:55;;;;;;;5.20;4.80;;;21.40;29.80;;;;;;10472363;28;20225;-70
2023/05/07 21:23:58;;;;;;;5.13;4.73;;;21.30;29.60;;;;;;10469873;28;20224;-70
2023/05/07 21:29:02;;;;;;;5.93;5.43;;;21.30;29.80;;;;;;10470134;28;20259;-70
2023/05/07 21:34:06;;;;;;;5.77;5.37;;;21.20;30.00;;;;;;10467985;28;20255;-69
2023/05/07 21:39:10;;;;;;;5.23;4.83;;;21.20;29.90;;;;;;10468659;28;20232;-70
2023/05/07 21:44:15;;;;;;;5.60;5.20;;;21.10;29.90;;;;;;10477092;28;20236;-70
2023/05/07 21:49:18;;;;;;;5.97;5.50;;;21.10;30.10;;;;;;10475931;28;20240;-70
2023/05/07 21:54:21;;;;;;;5.57;5.10;;;21.10;30.00;;;;;;10479683;28;20228;-69
2023/05/07 21:59:26;;;;;;;6.33;5.83;;;21.00;30.00;;;;;;10478387;28;20232;-70
2023/05/07 22:04:29;;;;;;;5.70;5.30;;;21.00;30.20;;;;;;10477380;28;20227;-70
2023/05/07 22:09:32;;;;;;;5.83;5.33;;;21.00;30.10;;;;;;10476021;28;20610;-70
2023/05/07 22:14:37;;;;;;;6.07;5.47;;;20.90;30.10;;;;;;10475500;28;20925;-70
2023/05/07 22:19:40;;;;;;;5.73;5.20;;;20.90;30.40;;;;;;10475594;28;20232;-69
2023/05/07 22:24:43;;;;;;;5.73;5.33;;;20.80;30.30;;;;;;10475961;28;20263;-69
2023/05/07 22:29:47;;;;;;;6.10;5.60;;;20.80;30.40;;;;;;10477820;28;20231;-69
2023/05/07 22:34:51;;;;;;;6.13;5.63;;;20.70;30.80;;;;;;10474554;28;20231;-69
2023/05/07 22:39:54;;;;;;;5.83;5.33;;;20.70;30.70;;;;;;10477438;28;20224;-70
2023/05/07 22:44:58;;;;;;;5.90;5.50;;;20.60;30.60;;;;;;10476422;28;20647;-74
2023/05/07 22:50:04;;;;;;;5.80;5.37;;;20.60;31.10;;;;;;10478028;28;20231;-71
2023/05/07 22:55:08;;;;;;;5.40;5.00;;;20.50;30.80;;;;;;10475942;28;20236;-74
2023/05/07 23:00:14;;;;;;;6.37;5.70;;;20.50;30.80;;;;;;10478956;28;20240;-74
2023/05/07 23:05:17;;;;;;;6.13;5.63;;;20.50;31.30;;;;;;10479139;28;20806;-74
2023/05/07 23:10:20;;;;;;;6.07;5.60;;;20.50;31.10;;;;;;10476041;28;20263;-74
2023/05/07 23:15:25;;;;;;;6.30;5.80;;;20.40;31.00;;;;;;10476133;28;20233;-74
2023/05/07 23:20:28;;;;;;;5.37;4.97;;;20.40;31.40;;;;;;10480036;28;20230;-73
2023/05/07 23:25:31;;;;;;;5.07;4.67;;;20.30;31.30;;;;;;10476637;28;20235;-73
2023/05/07 23:30:36;;;;;;;5.97;5.47;;;20.30;31.30;;;;;;10476815;28;20233;-74
2023/05/07 23:35:39;;;;;;;5.93;5.43;;;20.30;31.80;;;;;;10475745;28;20228;-74
2023/05/07 23:40:42;;;;;;;5.50;5.07;;;20.20;31.40;;;;;;10478642;28;20228;-75
2023/05/07 23:45:47;;;;;;;5.90;5.47;;;20.20;31.40;;;;;;10474981;28;20575;-75
2023/05/07 23:50:50;;;;;;;6.10;5.60;;;20.10;31.80;;;;;;10476931;28;20232;-74
2023/05/07 23:55:53;;;;;;;5.57;5.07;;;20.10;31.60;;;;;;10476066;28;20235;-74
